LGS2411 EBBR-BIKF
Flight info
| Callsign | LGS2411 |
|---|---|
| Flight time | N/A |
| Altitude | 36000 |
| Route | DENUT L610 NILON DCT WESUL M14 STOAT L613 LEHOC DCT INPIP DCT GOW DCT EVBEV DCT BALIX/M079F360 DCT BREKI DCT BASLU BASLU4N |
| Aircraft | B738/M-SDE2E3FGHIRWXY/LB1 |
Departure
| Time | 2026-05-07 23:31 |
|---|---|
| Airport | Brussels Airport (EBBR) |
Arrival
| Time | N/A |
|---|---|
| Airport | Keflavik International Airport (BIKF) |
| Time | Latitude | Longitude | Altitude | Speed | Heading |
|---|---|---|---|---|---|
| 2026-05-07 23:15 | 50.90519 | 4.48949 | 120 ft | 0 kts | 155° |
| 2026-05-07 23:23 | 50.90534 | 4.48939 | 115 ft | 4 kts | 166° |
| 2026-05-07 23:23 | 50.90561 | 4.48935 | 116 ft | 4 kts | 186° |
| 2026-05-07 23:23 | 50.90586 | 4.48945 | 116 ft | 4 kts | 204° |
| 2026-05-07 23:23 | 50.90609 | 4.48967 | 115 ft | 4 kts | 224° |
| 2026-05-07 23:24 | 50.90622 | 4.48994 | 116 ft | 1 kts | 245° |
| 2026-05-07 23:26 | 50.90616 | 4.48973 | 115 ft | 9 kts | 245° |
| 2026-05-07 23:26 | 50.90590 | 4.48882 | 118 ft | 5 kts | 245° |
| 2026-05-07 23:26 | 50.90577 | 4.48837 | 117 ft | 1 kts | 245° |
| 2026-05-07 23:27 | 50.90538 | 4.48702 | 117 ft | 9 kts | 245° |
| 2026-05-07 23:27 | 50.90528 | 4.48667 | 118 ft | 0 kts | 245° |
| 2026-05-07 23:27 | 50.90529 | 4.48656 | 120 ft | 3 kts | 275° |
| 2026-05-07 23:28 | 50.90553 | 4.48521 | 120 ft | 17 kts | 266° |
| 2026-05-07 23:28 | 50.90509 | 4.48343 | 117 ft | 23 kts | 245° |
| 2026-05-07 23:28 | 50.90422 | 4.48034 | 118 ft | 23 kts | 246° |
| 2026-05-07 23:28 | 50.90374 | 4.47865 | 117 ft | 16 kts | 246° |
| 2026-05-07 23:29 | 50.90322 | 4.47683 | 118 ft | 19 kts | 246° |
| 2026-05-07 23:29 | 50.90267 | 4.47493 | 120 ft | 19 kts | 245° |
| 2026-05-07 23:29 | 50.90214 | 4.47309 | 121 ft | 18 kts | 245° |
| 2026-05-07 23:29 | 50.90170 | 4.47129 | 125 ft | 17 kts | 270° |
| 2026-05-07 23:30 | 50.90173 | 4.47106 | 125 ft | 0 kts | 287° |
| 2026-05-07 23:30 | 50.90185 | 4.47064 | 123 ft | 9 kts | 294° |
| 2026-05-07 23:30 | 50.90232 | 4.46933 | 126 ft | 15 kts | 324° |
| 2026-05-07 23:30 | 50.90309 | 4.47011 | 124 ft | 16 kts | 65° |
| 2026-05-07 23:31 | 50.90455 | 4.47510 | 121 ft | 87 kts | 65° |
| 2026-05-07 23:31 | 50.90798 | 4.48701 | 118 ft | 149 kts | 65° |
| 2026-05-07 23:31 | 50.91257 | 4.50420 | 416 ft | 176 kts | 69° |
| 2026-05-07 23:31 | 50.91650 | 4.52189 | 1530 ft | 164 kts | 72° |
| 2026-05-07 23:32 | 50.92157 | 4.53806 | 2293 ft | 173 kts | 45° |
| 2026-05-07 23:32 | 50.93347 | 4.54549 | 2604 ft | 205 kts | 360° |
| 2026-05-07 23:32 | 50.94767 | 4.53799 | 2855 ft | 231 kts | 326° |
| 2026-05-07 23:32 | 50.95857 | 4.51859 | 3361 ft | 243 kts | 302° |
| 2026-05-07 23:33 | 50.96665 | 4.49485 | 4025 ft | 247 kts | 297° |
| 2026-05-07 23:33 | 50.97423 | 4.47031 | 4868 ft | 248 kts | 297° |
| 2026-05-07 23:33 | 50.98179 | 4.44574 | 5809 ft | 246 kts | 297° |
| 2026-05-07 23:33 | 50.98940 | 4.42132 | 6678 ft | 248 kts | 297° |
| 2026-05-07 23:34 | 50.99715 | 4.39680 | 7439 ft | 251 kts | 297° |
| 2026-05-07 23:34 | 51.00512 | 4.37185 | 8222 ft | 254 kts | 297° |
| 2026-05-07 23:34 | 51.01322 | 4.34666 | 9001 ft | 258 kts | 297° |
| 2026-05-07 23:34 | 51.02147 | 4.32117 | 9795 ft | 261 kts | 297° |
| 2026-05-07 23:35 | 51.02985 | 4.29536 | 10510 ft | 264 kts | 297° |
| 2026-05-07 23:35 | 51.03833 | 4.26930 | 11238 ft | 266 kts | 297° |
| 2026-05-07 23:35 | 51.04687 | 4.24307 | 11983 ft | 269 kts | 296° |
| 2026-05-07 23:35 | 51.05550 | 4.21660 | 12718 ft | 271 kts | 296° |
| 2026-05-07 23:36 | 51.06421 | 4.18989 | 13454 ft | 273 kts | 296° |
| 2026-05-07 23:36 | 51.07301 | 4.16289 | 14139 ft | 276 kts | 296° |
| 2026-05-07 23:36 | 51.08190 | 4.13560 | 14797 ft | 279 kts | 296° |
| 2026-05-07 23:36 | 51.09084 | 4.10812 | 15461 ft | 281 kts | 296° |
| 2026-05-07 23:37 | 51.09984 | 4.08043 | 16118 ft | 283 kts | 296° |
| 2026-05-07 23:37 | 51.10906 | 4.05205 | 16513 ft | 298 kts | 296° |
| 2026-05-07 23:37 | 51.11876 | 4.02213 | 16656 ft | 318 kts | 296° |
| 2026-05-07 23:37 | 51.12919 | 3.98989 | 16833 ft | 337 kts | 296° |
| 2026-05-07 23:38 | 51.14025 | 3.95574 | 17264 ft | 347 kts | 296° |
| 2026-05-07 23:38 | 51.15122 | 3.92183 | 17915 ft | 350 kts | 296° |
| 2026-05-07 23:38 | 51.16239 | 3.88725 | 18601 ft | 352 kts | 296° |
| 2026-05-07 23:38 | 51.17359 | 3.85250 | 19178 ft | 354 kts | 296° |
| 2026-05-07 23:39 | 51.18489 | 3.81741 | 19761 ft | 357 kts | 296° |
| 2026-05-07 23:39 | 51.19625 | 3.78208 | 20328 ft | 360 kts | 296° |
| 2026-05-07 23:39 | 51.20771 | 3.74642 | 20901 ft | 363 kts | 296° |
| 2026-05-07 23:39 | 51.21923 | 3.71048 | 21469 ft | 365 kts | 296° |
| 2026-05-07 23:40 | 51.23082 | 3.67424 | 22011 ft | 368 kts | 295° |
| 2026-05-07 23:40 | 51.23999 | 3.63615 | 22523 ft | 370 kts | 282° |
| 2026-05-07 23:40 | 51.24519 | 3.59587 | 23070 ft | 372 kts | 280° |
| 2026-05-07 23:40 | 51.25007 | 3.55521 | 23603 ft | 375 kts | 280° |
| 2026-05-07 23:41 | 51.25337 | 3.52805 | 23891 ft | 377 kts | 280° |
| 2026-05-07 23:41 | 51.25858 | 3.48688 | 24335 ft | 379 kts | 281° |
| 2026-05-07 23:41 | 51.26394 | 3.44556 | 24785 ft | 381 kts | 281° |
| 2026-05-07 23:41 | 51.26937 | 3.40401 | 25224 ft | 384 kts | 281° |
| 2026-05-07 23:42 | 51.27484 | 3.36219 | 25643 ft | 386 kts | 281° |
| 2026-05-07 23:42 | 51.28033 | 3.32006 | 26056 ft | 388 kts | 281° |
| 2026-05-07 23:42 | 51.28583 | 3.27773 | 26472 ft | 391 kts | 281° |
| 2026-05-07 23:42 | 51.29135 | 3.23515 | 26888 ft | 393 kts | 281° |
| 2026-05-07 23:43 | 51.29689 | 3.19226 | 27282 ft | 395 kts | 281° |
| 2026-05-07 23:43 | 51.30243 | 3.14918 | 27676 ft | 397 kts | 281° |
| 2026-05-07 23:43 | 51.30799 | 3.10582 | 28060 ft | 400 kts | 280° |
| 2026-05-07 23:43 | 51.31359 | 3.06209 | 28431 ft | 402 kts | 280° |
| 2026-05-07 23:44 | 51.31918 | 3.01822 | 28801 ft | 404 kts | 280° |
| 2026-05-07 23:44 | 51.32479 | 2.97408 | 29159 ft | 406 kts | 280° |
| 2026-05-07 23:44 | 51.33041 | 2.92971 | 29513 ft | 408 kts | 280° |
| 2026-05-07 23:44 | 51.33605 | 2.88510 | 29866 ft | 410 kts | 280° |
| 2026-05-07 23:45 | 51.34170 | 2.84027 | 30182 ft | 413 kts | 280° |
| 2026-05-07 23:45 | 51.34737 | 2.79514 | 30459 ft | 414 kts | 280° |
| 2026-05-07 23:45 | 51.35304 | 2.74980 | 30746 ft | 416 kts | 280° |
| 2026-05-07 23:45 | 51.35866 | 2.70438 | 31021 ft | 417 kts | 280° |
| 2026-05-07 23:46 | 51.36425 | 2.65875 | 31287 ft | 419 kts | 280° |
| 2026-05-07 23:46 | 51.36984 | 2.61295 | 31548 ft | 420 kts | 279° |
| 2026-05-07 23:46 | 51.37544 | 2.56688 | 31801 ft | 422 kts | 279° |
| 2026-05-07 23:46 | 51.38104 | 2.52075 | 32047 ft | 424 kts | 279° |
| 2026-05-07 23:47 | 51.38665 | 2.47440 | 32287 ft | 425 kts | 279° |
| 2026-05-07 23:47 | 51.39220 | 2.42843 | 32524 ft | 426 kts | 279° |
| 2026-05-07 23:47 | 51.39788 | 2.38114 | 32763 ft | 428 kts | 279° |
| 2026-05-07 23:47 | 51.40343 | 2.33490 | 32984 ft | 429 kts | 279° |
| 2026-05-07 23:48 | 51.40913 | 2.28718 | 33200 ft | 431 kts | 279° |
| 2026-05-07 23:48 | 51.41470 | 2.24064 | 33410 ft | 432 kts | 279° |
| 2026-05-07 23:48 | 51.42054 | 2.19265 | 33626 ft | 434 kts | 279° |
| 2026-05-07 23:48 | 51.42636 | 2.14526 | 33825 ft | 435 kts | 279° |
| 2026-05-07 23:49 | 51.43219 | 2.09764 | 34026 ft | 436 kts | 279° |
| 2026-05-07 23:49 | 51.43800 | 2.04987 | 34192 ft | 437 kts | 279° |
| 2026-05-07 23:49 | 51.44379 | 2.00190 | 34330 ft | 439 kts | 279° |
| 2026-05-07 23:49 | 51.44956 | 1.95373 | 34470 ft | 441 kts | 279° |
| 2026-05-07 23:50 | 51.45530 | 1.90540 | 34646 ft | 441 kts | 279° |
| 2026-05-07 23:50 | 51.46099 | 1.85717 | 34836 ft | 441 kts | 279° |
| 2026-05-07 23:50 | 51.46659 | 1.80882 | 35036 ft | 441 kts | 279° |
| 2026-05-07 23:50 | 51.47212 | 1.76038 | 35200 ft | 442 kts | 279° |
| 2026-05-07 23:51 | 51.47765 | 1.71188 | 35375 ft | 442 kts | 279° |
| 2026-05-07 23:51 | 51.48318 | 1.66335 | 35550 ft | 442 kts | 279° |
| 2026-05-07 23:51 | 51.48869 | 1.61485 | 35719 ft | 443 kts | 279° |
| 2026-05-07 23:51 | 51.49420 | 1.56619 | 35894 ft | 443 kts | 279° |
| 2026-05-07 23:52 | 51.49969 | 1.51763 | 36044 ft | 443 kts | 279° |
| 2026-05-07 23:52 | 51.50517 | 1.46891 | 36092 ft | 445 kts | 279° |
| 2026-05-07 23:52 | 51.51606 | 1.37177 | 36098 ft | 444 kts | 278° |
| 2026-05-07 23:53 | 51.52688 | 1.27435 | 36101 ft | 443 kts | 278° |
| 2026-05-07 23:53 | 51.53762 | 1.17709 | 36102 ft | 442 kts | 278° |
| 2026-05-07 23:54 | 51.54826 | 1.07994 | 36104 ft | 441 kts | 278° |
| 2026-05-07 23:54 | 51.55886 | 0.98286 | 36103 ft | 441 kts | 278° |
| 2026-05-07 23:55 | 51.56934 | 0.88563 | 36104 ft | 441 kts | 278° |
| 2026-05-07 23:55 | 51.57971 | 0.78835 | 36105 ft | 442 kts | 278° |
| 2026-05-07 23:56 | 51.59057 | 0.69105 | 36102 ft | 444 kts | 283° |
| 2026-05-07 23:56 | 51.61456 | 0.59953 | 36112 ft | 448 kts | 299° |
| 2026-05-07 23:57 | 51.65290 | 0.51989 | 36104 ft | 452 kts | 308° |
| 2026-05-07 23:57 | 51.69692 | 0.44740 | 36103 ft | 455 kts | 316° |
| 2026-05-07 23:58 | 51.74486 | 0.38050 | 36094 ft | 456 kts | 317° |
| 2026-05-07 23:58 | 51.79276 | 0.31330 | 36100 ft | 456 kts | 316° |
| 2026-05-07 23:59 | 51.84049 | 0.24545 | 36106 ft | 457 kts | 316° |
| 2026-05-07 23:59 | 51.88811 | 0.17733 | 36101 ft | 457 kts | 316° |
| 2026-05-08 00:00 | 51.93569 | 0.10908 | 36103 ft | 457 kts | 316° |
| 2026-05-08 00:00 | 51.98322 | 0.04074 | 36106 ft | 457 kts | 316° |
| 2026-05-08 00:01 | 52.03133 | -0.02552 | 36086 ft | 459 kts | 323° |
| 2026-05-08 00:01 | 52.08714 | -0.07666 | 36094 ft | 461 kts | 330° |
| 2026-05-08 00:02 | 52.14401 | -0.12483 | 36086 ft | 461 kts | 330° |
| 2026-05-08 00:02 | 52.20062 | -0.17403 | 36080 ft | 461 kts | 329° |
| 2026-05-08 00:03 | 52.25699 | -0.22381 | 36076 ft | 461 kts | 329° |
| 2026-05-08 00:03 | 52.31332 | -0.27368 | 36072 ft | 460 kts | 329° |
| 2026-05-08 00:04 | 52.36963 | -0.32360 | 36077 ft | 460 kts | 329° |
| 2026-05-08 00:04 | 52.42591 | -0.37363 | 36083 ft | 460 kts | 329° |
| 2026-05-08 00:05 | 52.48211 | -0.42375 | 36082 ft | 460 kts | 329° |
| 2026-05-08 00:05 | 52.53834 | -0.47404 | 36076 ft | 460 kts | 329° |
| 2026-05-08 00:06 | 52.59456 | -0.52449 | 36077 ft | 460 kts | 329° |
| 2026-05-08 00:06 | 52.65071 | -0.57501 | 36074 ft | 460 kts | 329° |
| 2026-05-08 00:07 | 52.70689 | -0.62571 | 36079 ft | 460 kts | 329° |
| 2026-05-08 00:07 | 52.76300 | -0.67650 | 36075 ft | 460 kts | 329° |
| 2026-05-08 00:08 | 52.81906 | -0.72739 | 36075 ft | 460 kts | 329° |
| 2026-05-08 00:08 | 52.87508 | -0.77841 | 36077 ft | 460 kts | 329° |
| 2026-05-08 00:09 | 52.93076 | -0.82927 | 36075 ft | 460 kts | 328° |
| 2026-05-08 00:09 | 52.98671 | -0.88051 | 36077 ft | 460 kts | 328° |
| 2026-05-08 00:10 | 53.04264 | -0.93185 | 36072 ft | 459 kts | 328° |
| 2026-05-08 00:10 | 53.09858 | -0.98326 | 36070 ft | 459 kts | 328° |
| 2026-05-08 00:11 | 53.15451 | -1.03484 | 36066 ft | 459 kts | 328° |
| 2026-05-08 00:11 | 53.21039 | -1.08652 | 36065 ft | 459 kts | 328° |
| 2026-05-08 00:12 | 53.26623 | -1.13835 | 36065 ft | 459 kts | 328° |
| 2026-05-08 00:12 | 53.32203 | -1.19028 | 36060 ft | 459 kts | 328° |
| 2026-05-08 00:13 | 53.37784 | -1.24238 | 36063 ft | 459 kts | 328° |
| 2026-05-08 00:13 | 53.43365 | -1.29465 | 36064 ft | 459 kts | 328° |
| 2026-05-08 00:14 | 53.48938 | -1.34722 | 36060 ft | 460 kts | 328° |
| 2026-05-08 00:14 | 53.54507 | -1.39998 | 36056 ft | 460 kts | 328° |
| 2026-05-08 00:15 | 53.60076 | -1.45286 | 36054 ft | 460 kts | 328° |
| 2026-05-08 00:15 | 53.65608 | -1.50555 | 36055 ft | 460 kts | 328° |
| 2026-05-08 00:16 | 53.71177 | -1.55872 | 36054 ft | 460 kts | 328° |
| 2026-05-08 00:16 | 53.76333 | -1.62130 | 36060 ft | 455 kts | 315° |
| 2026-05-08 00:17 | 53.80982 | -1.69403 | 36045 ft | 455 kts | 314° |
| 2026-05-08 00:17 | 53.85627 | -1.76682 | 36050 ft | 455 kts | 315° |
| 2026-05-08 00:18 | 53.90304 | -1.83921 | 36054 ft | 456 kts | 315° |
| 2026-05-08 00:18 | 53.94999 | -1.91177 | 36048 ft | 456 kts | 315° |
| 2026-05-08 00:19 | 53.99684 | -1.98446 | 36059 ft | 456 kts | 315° |
| 2026-05-08 00:19 | 54.04745 | -2.05012 | 36055 ft | 461 kts | 326° |
| 2026-05-08 00:20 | 54.10306 | -2.10504 | 36049 ft | 463 kts | 327° |
| 2026-05-08 00:20 | 54.15894 | -2.15962 | 36051 ft | 463 kts | 327° |
| 2026-05-08 00:21 | 54.21454 | -2.21501 | 36057 ft | 463 kts | 327° |
| 2026-05-08 00:21 | 54.27006 | -2.27103 | 36054 ft | 463 kts | 326° |
| 2026-05-08 00:22 | 54.32553 | -2.32729 | 36045 ft | 464 kts | 326° |
| 2026-05-08 00:22 | 54.38110 | -2.38380 | 36040 ft | 464 kts | 326° |
| 2026-05-08 00:23 | 54.43659 | -2.44040 | 36037 ft | 464 kts | 326° |
| 2026-05-08 00:23 | 54.49215 | -2.49723 | 36038 ft | 465 kts | 326° |
| 2026-05-08 00:24 | 54.54770 | -2.55423 | 36036 ft | 465 kts | 326° |
| 2026-05-08 00:24 | 54.60320 | -2.61137 | 36036 ft | 465 kts | 326° |
| 2026-05-08 00:25 | 54.65872 | -2.66872 | 36034 ft | 465 kts | 326° |
| 2026-05-08 00:25 | 54.71426 | -2.72627 | 36027 ft | 466 kts | 326° |
| 2026-05-08 00:26 | 54.76976 | -2.78396 | 36029 ft | 466 kts | 326° |
| 2026-05-08 00:26 | 54.81598 | -2.83215 | 36017 ft | 466 kts | 326° |
| 2026-05-08 00:27 | 54.87152 | -2.89046 | 36014 ft | 466 kts | 323° |
| 2026-05-08 00:27 | 54.92171 | -2.96031 | 36018 ft | 462 kts | 315° |
| 2026-05-08 00:28 | 54.96975 | -3.03454 | 36015 ft | 462 kts | 315° |
| 2026-05-08 00:28 | 55.01784 | -3.10878 | 36025 ft | 462 kts | 315° |
| 2026-05-08 00:29 | 55.06621 | -3.18282 | 36009 ft | 463 kts | 315° |
| 2026-05-08 00:29 | 55.11463 | -3.25681 | 36006 ft | 463 kts | 315° |
| 2026-05-08 00:30 | 55.16311 | -3.33109 | 36012 ft | 463 kts | 315° |
| 2026-05-08 00:30 | 55.21152 | -3.40554 | 36007 ft | 463 kts | 315° |
| 2026-05-08 00:31 | 55.25987 | -3.48019 | 36004 ft | 463 kts | 315° |
| 2026-05-08 00:31 | 55.30788 | -3.55455 | 35996 ft | 463 kts | 315° |
| 2026-05-08 00:32 | 55.35614 | -3.62955 | 35997 ft | 463 kts | 315° |
| 2026-05-08 00:32 | 55.40432 | -3.70468 | 35997 ft | 463 kts | 314° |
| 2026-05-08 00:33 | 55.45245 | -3.78000 | 35994 ft | 463 kts | 314° |
| 2026-05-08 00:33 | 55.50055 | -3.85552 | 35992 ft | 463 kts | 314° |
| 2026-05-08 00:34 | 55.54866 | -3.93131 | 35987 ft | 463 kts | 314° |
| 2026-05-08 00:34 | 55.59666 | -4.00720 | 35975 ft | 463 kts | 314° |
| 2026-05-08 00:35 | 55.64463 | -4.08328 | 35980 ft | 463 kts | 314° |
| 2026-05-08 00:35 | 55.69253 | -4.15954 | 35971 ft | 463 kts | 314° |
| 2026-05-08 00:36 | 55.74037 | -4.23595 | 35973 ft | 463 kts | 314° |
| 2026-05-08 00:36 | 55.78817 | -4.31258 | 35969 ft | 462 kts | 314° |
| 2026-05-08 00:37 | 55.83583 | -4.38922 | 35969 ft | 462 kts | 314° |
| 2026-05-08 00:38 | 55.90753 | -4.50409 | 35972 ft | 462 kts | 314° |
| 2026-05-08 00:38 | 55.95581 | -4.57994 | 35968 ft | 462 kts | 314° |
| 2026-05-08 00:39 | 56.00404 | -4.65592 | 35974 ft | 462 kts | 314° |
| 2026-05-08 00:39 | 56.05217 | -4.73220 | 35972 ft | 462 kts | 314° |
| 2026-05-08 00:40 | 56.10028 | -4.80884 | 35962 ft | 463 kts | 314° |
| 2026-05-08 00:40 | 56.14837 | -4.88576 | 35967 ft | 463 kts | 314° |
| 2026-05-08 00:41 | 56.19646 | -4.96293 | 35960 ft | 463 kts | 314° |
| 2026-05-08 00:41 | 56.24443 | -5.04016 | 35963 ft | 463 kts | 314° |
| 2026-05-08 00:42 | 56.29235 | -5.11759 | 35955 ft | 463 kts | 313° |
| 2026-05-08 00:42 | 56.34025 | -5.19527 | 35953 ft | 464 kts | 313° |
| 2026-05-08 00:43 | 56.38816 | -5.27323 | 35957 ft | 464 kts | 313° |
| 2026-05-08 00:43 | 56.43603 | -5.35141 | 35951 ft | 464 kts | 313° |
| 2026-05-08 00:44 | 56.48356 | -5.42930 | 35946 ft | 464 kts | 313° |
| 2026-05-08 00:44 | 56.53141 | -5.50801 | 35945 ft | 465 kts | 313° |
| 2026-05-08 00:45 | 56.57917 | -5.58683 | 35942 ft | 465 kts | 313° |
| 2026-05-08 00:45 | 56.62695 | -5.66598 | 35941 ft | 465 kts | 313° |
| 2026-05-08 00:46 | 56.67472 | -5.74540 | 35935 ft | 465 kts | 313° |
| 2026-05-08 00:46 | 56.72248 | -5.82507 | 35928 ft | 466 kts | 313° |
| 2026-05-08 00:47 | 56.77013 | -5.90486 | 35935 ft | 466 kts | 313° |
| 2026-05-08 00:47 | 56.81781 | -5.98499 | 35927 ft | 466 kts | 313° |
| 2026-05-08 00:48 | 56.86547 | -6.06537 | 35924 ft | 466 kts | 312° |
| 2026-05-08 00:48 | 56.91311 | -6.14602 | 35924 ft | 467 kts | 312° |
| 2026-05-08 00:49 | 56.96071 | -6.22689 | 35911 ft | 467 kts | 312° |
| 2026-05-08 00:49 | 57.00832 | -6.30806 | 35911 ft | 467 kts | 312° |
| 2026-05-08 00:50 | 57.05559 | -6.38896 | 35898 ft | 468 kts | 312° |
| 2026-05-08 00:50 | 57.10310 | -6.47056 | 35902 ft | 467 kts | 312° |
| 2026-05-08 00:51 | 57.15059 | -6.55243 | 35891 ft | 467 kts | 312° |
| 2026-05-08 00:51 | 57.19799 | -6.63446 | 35886 ft | 467 kts | 312° |
| 2026-05-08 00:52 | 57.24536 | -6.71672 | 35880 ft | 467 kts | 311° |
| 2026-05-08 00:52 | 57.29295 | -6.79970 | 35873 ft | 467 kts | 311° |
| 2026-05-08 00:53 | 57.33988 | -6.88181 | 35860 ft | 467 kts | 311° |
| 2026-05-08 00:53 | 57.38704 | -6.96463 | 35847 ft | 467 kts | 311° |
| 2026-05-08 00:54 | 57.43419 | -7.04775 | 35841 ft | 467 kts | 311° |
| 2026-05-08 00:54 | 57.48120 | -7.13094 | 35835 ft | 467 kts | 311° |
| 2026-05-08 00:55 | 57.52818 | -7.21439 | 35839 ft | 467 kts | 311° |
| 2026-05-08 00:55 | 57.57510 | -7.29804 | 35835 ft | 467 kts | 311° |
| 2026-05-08 00:56 | 57.62192 | -7.38182 | 35833 ft | 466 kts | 311° |
| 2026-05-08 00:56 | 57.66868 | -7.46580 | 35825 ft | 466 kts | 311° |
| 2026-05-08 00:57 | 57.71534 | -7.54995 | 35817 ft | 465 kts | 311° |
| 2026-05-08 00:57 | 57.76187 | -7.63415 | 35807 ft | 465 kts | 311° |
| 2026-05-08 00:58 | 57.80831 | -7.71848 | 35798 ft | 465 kts | 311° |
| 2026-05-08 00:58 | 57.85466 | -7.80299 | 35791 ft | 464 kts | 311° |
| 2026-05-08 00:59 | 57.90092 | -7.88767 | 35784 ft | 464 kts | 311° |
| 2026-05-08 00:59 | 57.94707 | -7.97248 | 35779 ft | 464 kts | 311° |
| 2026-05-08 01:00 | 57.99320 | -8.05758 | 35778 ft | 464 kts | 311° |
| 2026-05-08 01:00 | 58.03928 | -8.14288 | 35773 ft | 464 kts | 311° |
| 2026-05-08 01:01 | 58.08529 | -8.22841 | 35765 ft | 464 kts | 311° |
| 2026-05-08 01:01 | 58.13134 | -8.31432 | 35757 ft | 465 kts | 311° |
| 2026-05-08 01:02 | 58.17704 | -8.39993 | 35751 ft | 465 kts | 311° |
| 2026-05-08 01:02 | 58.22297 | -8.48627 | 35750 ft | 465 kts | 311° |
| 2026-05-08 01:03 | 58.26887 | -8.57291 | 35748 ft | 465 kts | 311° |
| 2026-05-08 01:03 | 58.31471 | -8.65976 | 35742 ft | 465 kts | 311° |
| 2026-05-08 01:04 | 58.36053 | -8.74691 | 35733 ft | 465 kts | 311° |
| 2026-05-08 01:04 | 58.40628 | -8.83428 | 35736 ft | 465 kts | 311° |
| 2026-05-08 01:05 | 58.45195 | -8.92183 | 35736 ft | 466 kts | 311° |
| 2026-05-08 01:05 | 58.49761 | -9.00970 | 35730 ft | 466 kts | 311° |
| 2026-05-08 01:06 | 58.54318 | -9.09775 | 35723 ft | 466 kts | 311° |
| 2026-05-08 01:06 | 58.58874 | -9.18611 | 35716 ft | 466 kts | 311° |
| 2026-05-08 01:07 | 58.63420 | -9.27463 | 35717 ft | 466 kts | 311° |
| 2026-05-08 01:07 | 58.67958 | -9.36336 | 35716 ft | 465 kts | 311° |
| 2026-05-08 01:08 | 58.72489 | -9.45229 | 35716 ft | 465 kts | 310° |
| 2026-05-08 01:08 | 58.76981 | -9.54081 | 35714 ft | 465 kts | 310° |
| 2026-05-08 01:09 | 58.81499 | -9.63019 | 35714 ft | 465 kts | 310° |
| 2026-05-08 01:09 | 58.86005 | -9.71969 | 35713 ft | 465 kts | 310° |
| 2026-05-08 01:10 | 58.90503 | -9.80938 | 35712 ft | 465 kts | 310° |
| 2026-05-08 01:10 | 58.94994 | -9.89931 | 35716 ft | 464 kts | 310° |
| 2026-05-08 01:11 | 58.99476 | -9.98937 | 35708 ft | 464 kts | 310° |
| 2026-05-08 01:11 | 59.03831 | -10.08164 | 35708 ft | 463 kts | 308° |
| 2026-05-08 01:12 | 59.08029 | -10.17623 | 35711 ft | 462 kts | 307° |
| 2026-05-08 01:12 | 59.12217 | -10.27105 | 35713 ft | 462 kts | 307° |
| 2026-05-08 01:13 | 59.16419 | -10.36574 | 35712 ft | 462 kts | 307° |
| 2026-05-08 01:13 | 59.20618 | -10.46037 | 35713 ft | 461 kts | 307° |
| 2026-05-08 01:14 | 59.24104 | -10.53901 | 35723 ft | 461 kts | 308° |
| 2026-05-08 01:14 | 59.28291 | -10.63379 | 35720 ft | 460 kts | 307° |
| 2026-05-08 01:15 | 59.32459 | -10.72870 | 35727 ft | 459 kts | 307° |
| 2026-05-08 01:15 | 59.36615 | -10.82371 | 35729 ft | 459 kts | 307° |
| 2026-05-08 01:16 | 59.40755 | -10.91874 | 35739 ft | 458 kts | 307° |
| 2026-05-08 01:16 | 59.44889 | -11.01404 | 35733 ft | 458 kts | 307° |
| 2026-05-08 01:17 | 59.49011 | -11.10946 | 35749 ft | 458 kts | 307° |
| 2026-05-08 01:17 | 59.53125 | -11.20505 | 35745 ft | 458 kts | 307° |
| 2026-05-08 01:18 | 59.57234 | -11.30092 | 35754 ft | 458 kts | 307° |
| 2026-05-08 01:18 | 59.61334 | -11.39705 | 35758 ft | 458 kts | 307° |
| 2026-05-08 01:19 | 59.65425 | -11.49333 | 35775 ft | 458 kts | 307° |
| 2026-05-08 01:19 | 59.69511 | -11.58990 | 35777 ft | 458 kts | 307° |
| 2026-05-08 01:20 | 59.73596 | -11.68684 | 35779 ft | 458 kts | 307° |
| 2026-05-08 01:20 | 59.77674 | -11.78407 | 35783 ft | 458 kts | 307° |
| 2026-05-08 01:21 | 59.81749 | -11.88142 | 35791 ft | 459 kts | 307° |
| 2026-05-08 01:21 | 59.85814 | -11.97913 | 35801 ft | 459 kts | 307° |
| 2026-05-08 01:22 | 59.89850 | -12.07647 | 35804 ft | 459 kts | 307° |
| 2026-05-08 01:22 | 59.93904 | -12.17476 | 35818 ft | 459 kts | 307° |
| 2026-05-08 01:23 | 59.97979 | -12.27390 | 35822 ft | 459 kts | 307° |
| 2026-05-08 01:23 | 60.02023 | -12.37273 | 35823 ft | 459 kts | 307° |
| 2026-05-08 01:24 | 60.06030 | -12.47113 | 35838 ft | 459 kts | 307° |
| 2026-05-08 01:24 | 60.10065 | -12.57058 | 35837 ft | 460 kts | 307° |
| 2026-05-08 01:25 | 60.14089 | -12.67020 | 35860 ft | 460 kts | 307° |
| 2026-05-08 01:25 | 60.18106 | -12.77006 | 35851 ft | 460 kts | 307° |
| 2026-05-08 01:26 | 60.22120 | -12.87030 | 35863 ft | 460 kts | 307° |
| 2026-05-08 01:26 | 60.26125 | -12.97075 | 35864 ft | 460 kts | 307° |
| 2026-05-08 01:27 | 60.30118 | -13.07132 | 35877 ft | 460 kts | 307° |
| 2026-05-08 01:27 | 60.34109 | -13.17229 | 35880 ft | 460 kts | 307° |
| 2026-05-08 01:28 | 60.38086 | -13.27336 | 35886 ft | 460 kts | 307° |
| 2026-05-08 01:28 | 60.42060 | -13.37477 | 35904 ft | 460 kts | 307° |
| 2026-05-08 01:29 | 60.46021 | -13.47629 | 35908 ft | 460 kts | 307° |
| 2026-05-08 01:29 | 60.49978 | -13.57814 | 35915 ft | 460 kts | 307° |
| 2026-05-08 01:30 | 60.53923 | -13.68017 | 35915 ft | 459 kts | 307° |
| 2026-05-08 01:30 | 60.57862 | -13.78249 | 35928 ft | 460 kts | 307° |
| 2026-05-08 01:31 | 60.61794 | -13.88510 | 35936 ft | 460 kts | 307° |
| 2026-05-08 01:31 | 60.65723 | -13.98806 | 35947 ft | 460 kts | 307° |
| 2026-05-08 01:32 | 60.69642 | -14.09119 | 35949 ft | 460 kts | 307° |
| 2026-05-08 01:32 | 60.73555 | -14.19465 | 35958 ft | 460 kts | 307° |
| 2026-05-08 01:33 | 60.77459 | -14.29834 | 35959 ft | 460 kts | 307° |
| 2026-05-08 01:33 | 60.81361 | -14.40242 | 35970 ft | 460 kts | 307° |
| 2026-05-08 01:34 | 60.85255 | -14.50680 | 35971 ft | 460 kts | 307° |
| 2026-05-08 01:34 | 60.89135 | -14.61123 | 35989 ft | 460 kts | 307° |
| 2026-05-08 01:35 | 60.93011 | -14.71607 | 35991 ft | 460 kts | 307° |
| 2026-05-08 01:35 | 60.96877 | -14.82109 | 35999 ft | 460 kts | 307° |
| 2026-05-08 01:36 | 61.00736 | -14.92638 | 36019 ft | 460 kts | 307° |
| 2026-05-08 01:36 | 61.04584 | -15.03187 | 36014 ft | 460 kts | 307° |
| 2026-05-08 01:37 | 61.08425 | -15.13766 | 36025 ft | 460 kts | 307° |
| 2026-05-08 01:37 | 61.12254 | -15.24357 | 36029 ft | 460 kts | 307° |
| 2026-05-08 01:38 | 61.16070 | -15.34964 | 36048 ft | 459 kts | 307° |
| 2026-05-08 01:38 | 61.19878 | -15.45596 | 36038 ft | 459 kts | 307° |
| 2026-05-08 01:39 | 61.23667 | -15.56226 | 36045 ft | 458 kts | 307° |
| 2026-05-08 01:39 | 61.27447 | -15.66876 | 36059 ft | 457 kts | 307° |
| 2026-05-08 01:40 | 61.31187 | -15.77465 | 36055 ft | 457 kts | 307° |
| 2026-05-08 01:40 | 61.34938 | -15.88134 | 36067 ft | 456 kts | 307° |
| 2026-05-08 01:41 | 61.38674 | -15.98812 | 36074 ft | 456 kts | 307° |
| 2026-05-08 01:41 | 61.42403 | -16.09508 | 36087 ft | 455 kts | 307° |
| 2026-05-08 01:42 | 61.46119 | -16.20224 | 36074 ft | 455 kts | 307° |
| 2026-05-08 01:42 | 61.49822 | -16.30958 | 36081 ft | 455 kts | 307° |
| 2026-05-08 01:43 | 61.53512 | -16.41697 | 36086 ft | 454 kts | 307° |
| 2026-05-08 01:43 | 61.57198 | -16.52475 | 36093 ft | 454 kts | 307° |
| 2026-05-08 01:44 | 61.60869 | -16.63263 | 36096 ft | 454 kts | 307° |
| 2026-05-08 01:44 | 61.64528 | -16.74065 | 36100 ft | 453 kts | 307° |
| 2026-05-08 01:45 | 61.68179 | -16.84893 | 36105 ft | 453 kts | 307° |
| 2026-05-08 01:45 | 61.71820 | -16.95741 | 36104 ft | 453 kts | 307° |
| 2026-05-08 01:46 | 61.75453 | -17.06618 | 36110 ft | 453 kts | 307° |
| 2026-05-08 01:46 | 61.79080 | -17.17529 | 36113 ft | 454 kts | 307° |
| 2026-05-08 01:47 | 61.82699 | -17.28469 | 36116 ft | 454 kts | 307° |
| 2026-05-08 01:47 | 61.86314 | -17.39445 | 36119 ft | 455 kts | 307° |
| 2026-05-08 01:48 | 61.91725 | -17.55977 | 36123 ft | 455 kts | 306° |
| 2026-05-08 01:48 | 61.95328 | -17.67053 | 36126 ft | 456 kts | 306° |
| 2026-05-08 01:49 | 61.98927 | -17.78167 | 36130 ft | 457 kts | 306° |
| 2026-05-08 01:49 | 62.02523 | -17.89328 | 36132 ft | 457 kts | 306° |
| 2026-05-08 01:50 | 62.06113 | -18.00522 | 36134 ft | 457 kts | 306° |
| 2026-05-08 01:50 | 62.09692 | -18.11742 | 36131 ft | 457 kts | 306° |
| 2026-05-08 01:51 | 62.13238 | -18.22909 | 36135 ft | 457 kts | 306° |
| 2026-05-08 01:51 | 62.16799 | -18.34178 | 36138 ft | 457 kts | 306° |
| 2026-05-08 01:52 | 62.20348 | -18.45466 | 36138 ft | 457 kts | 306° |
| 2026-05-08 01:52 | 62.23885 | -18.56773 | 36139 ft | 456 kts | 306° |
| 2026-05-08 01:53 | 62.27410 | -18.68096 | 36138 ft | 456 kts | 306° |
| 2026-05-08 01:53 | 62.30919 | -18.79422 | 36141 ft | 455 kts | 306° |
| 2026-05-08 01:54 | 62.34415 | -18.90764 | 36141 ft | 455 kts | 306° |
| 2026-05-08 01:54 | 62.37899 | -19.02124 | 36145 ft | 454 kts | 306° |
| 2026-05-08 01:55 | 62.41367 | -19.13485 | 36151 ft | 453 kts | 305° |
| 2026-05-08 01:55 | 62.44820 | -19.24858 | 36156 ft | 453 kts | 305° |
| 2026-05-08 01:56 | 62.48265 | -19.36259 | 36154 ft | 453 kts | 305° |
| 2026-05-08 01:56 | 62.51697 | -19.47668 | 36156 ft | 452 kts | 305° |
| 2026-05-08 01:57 | 62.55277 | -19.58728 | 36159 ft | 449 kts | 311° |
| 2026-05-08 01:57 | 62.59322 | -19.69051 | 36158 ft | 449 kts | 313° |
| 2026-05-08 01:58 | 62.63382 | -19.79341 | 36175 ft | 449 kts | 313° |
| 2026-05-08 01:58 | 62.67413 | -19.89691 | 36169 ft | 448 kts | 312° |
| 2026-05-08 01:59 | 62.70735 | -19.98308 | 36151 ft | 431 kts | 312° |
| 2026-05-08 01:59 | 62.72621 | -20.03228 | 36157 ft | 416 kts | 312° |
| 2026-05-08 01:59 | 62.74445 | -20.07999 | 36155 ft | 402 kts | 312° |
| 2026-05-08 02:00 | 62.76208 | -20.12613 | 36158 ft | 389 kts | 312° |
| 2026-05-08 02:00 | 62.77908 | -20.17072 | 36157 ft | 376 kts | 312° |
| 2026-05-08 02:00 | 62.79550 | -20.21385 | 36156 ft | 362 kts | 313° |
| 2026-05-08 02:00 | 62.81143 | -20.25572 | 36181 ft | 358 kts | 313° |
| 2026-05-08 02:01 | 62.84373 | -20.34068 | 36206 ft | 370 kts | 312° |
| 2026-05-08 02:01 | 62.87709 | -20.42885 | 36207 ft | 381 kts | 312° |
| 2026-05-08 02:02 | 62.91108 | -20.51920 | 36201 ft | 385 kts | 312° |
| 2026-05-08 02:02 | 62.94445 | -20.60836 | 36188 ft | 375 kts | 312° |
| 2026-05-08 02:03 | 62.97733 | -20.69647 | 36206 ft | 373 kts | 312° |
| 2026-05-08 02:03 | 63.01022 | -20.78493 | 36214 ft | 374 kts | 312° |
| 2026-05-08 02:04 | 63.04314 | -20.87379 | 36213 ft | 375 kts | 312° |
| 2026-05-08 02:04 | 63.07615 | -20.96328 | 36219 ft | 376 kts | 312° |
| 2026-05-08 02:05 | 63.10911 | -21.05302 | 36226 ft | 376 kts | 312° |
| 2026-05-08 02:05 | 63.14205 | -21.14301 | 36223 ft | 377 kts | 312° |
| 2026-05-08 02:06 | 63.17491 | -21.23315 | 36226 ft | 376 kts | 312° |
| 2026-05-08 02:06 | 63.21059 | -21.31659 | 36240 ft | 371 kts | 322° |
| 2026-05-08 02:07 | 63.25046 | -21.38893 | 36235 ft | 370 kts | 323° |
| 2026-05-08 02:07 | 63.29006 | -21.46166 | 36239 ft | 369 kts | 322° |
| 2026-05-08 02:08 | 63.32917 | -21.53518 | 36242 ft | 367 kts | 322° |
| 2026-05-08 02:08 | 63.36776 | -21.60829 | 36246 ft | 366 kts | 322° |
| 2026-05-08 02:09 | 63.40643 | -21.68172 | 36249 ft | 365 kts | 322° |
| 2026-05-08 02:09 | 63.44499 | -21.75516 | 36251 ft | 364 kts | 322° |
| 2026-05-08 02:10 | 63.48336 | -21.82852 | 36254 ft | 363 kts | 322° |
| 2026-05-08 02:10 | 63.52165 | -21.90195 | 36258 ft | 362 kts | 322° |
| 2026-05-08 02:11 | 63.55986 | -21.97556 | 36265 ft | 362 kts | 322° |
| 2026-05-08 02:11 | 63.59800 | -22.04927 | 36267 ft | 362 kts | 322° |
| 2026-05-08 02:12 | 63.63611 | -22.12323 | 36273 ft | 362 kts | 322° |
| 2026-05-08 02:12 | 63.67422 | -22.19743 | 36273 ft | 362 kts | 322° |
| 2026-05-08 02:13 | 63.71233 | -22.27193 | 36278 ft | 363 kts | 322° |
| 2026-05-08 02:13 | 63.74999 | -22.34583 | 36285 ft | 363 kts | 321° |
| 2026-05-08 02:14 | 63.76700 | -22.38816 | 36277 ft | 368 kts | 306° |
| 2026-05-08 02:14 | 63.77842 | -22.44034 | 36298 ft | 373 kts | 295° |
| 2026-05-08 02:14 | 63.79568 | -22.55140 | 36284 ft | 375 kts | 294° |
| 2026-05-08 02:15 | 63.80569 | -22.60448 | 36258 ft | 367 kts | 310° |
| 2026-05-08 02:15 | 63.82402 | -22.64329 | 36298 ft | 354 kts | 335° |
| 2026-05-08 02:15 | 63.84699 | -22.65798 | 36291 ft | 350 kts | 0° |
| 2026-05-08 02:15 | 63.87108 | -22.65167 | 36314 ft | 351 kts | 7° |
| 2026-05-08 02:16 | 63.91815 | -22.62160 | 36318 ft | 354 kts | 17° |
| 2026-05-08 02:16 | 63.94200 | -22.60837 | 36304 ft | 352 kts | 5° |
| 2026-05-08 02:16 | 63.96646 | -22.60423 | 36291 ft | 353 kts | 360° |
| 2026-05-08 02:17 | 64.01577 | -22.61254 | 36301 ft | 359 kts | 349° |
| 2026-05-08 02:17 | 64.06384 | -22.64252 | 36282 ft | 358 kts | 340° |
| 2026-05-08 02:18 | 64.10829 | -22.69295 | 36281 ft | 356 kts | 329° |
| 2026-05-08 02:18 | 64.14754 | -22.76202 | 36287 ft | 357 kts | 319° |
| 2026-05-08 02:19 | 64.18042 | -22.84773 | 36290 ft | 360 kts | 309° |
| 2026-05-08 02:19 | 64.20585 | -22.94751 | 36297 ft | 365 kts | 299° |
| 2026-05-08 02:20 | 64.22292 | -23.05839 | 36297 ft | 372 kts | 289° |
| 2026-05-08 02:20 | 64.23096 | -23.17693 | 36300 ft | 380 kts | 279° |
| 2026-05-08 02:21 | 64.22954 | -23.29952 | 36303 ft | 389 kts | 269° |
| 2026-05-08 02:21 | 64.21849 | -23.42241 | 36306 ft | 398 kts | 259° |
| 2026-05-08 02:22 | 64.19794 | -23.54156 | 36302 ft | 406 kts | 249° |
| 2026-05-08 02:22 | 64.16830 | -23.65332 | 36302 ft | 414 kts | 239° |
| 2026-05-08 02:23 | 64.13032 | -23.75396 | 36300 ft | 422 kts | 229° |
| 2026-05-08 02:23 | 64.08492 | -23.84043 | 36303 ft | 428 kts | 219° |
| 2026-05-08 02:24 | 64.03330 | -23.90996 | 36303 ft | 434 kts | 209° |
| 2026-05-08 02:24 | 63.97694 | -23.96029 | 36308 ft | 438 kts | 199° |
| 2026-05-08 02:25 | 63.91730 | -23.98995 | 36305 ft | 440 kts | 189° |
| 2026-05-08 02:25 | 63.85603 | -23.99802 | 36310 ft | 442 kts | 179° |
| 2026-05-08 02:26 | 63.79525 | -23.98446 | 36304 ft | 442 kts | 169° |
| 2026-05-08 02:26 | 63.73544 | -23.94926 | 36308 ft | 441 kts | 159° |
| 2026-05-08 02:27 | 63.67974 | -23.89439 | 36305 ft | 439 kts | 149° |
| 2026-05-08 02:27 | 63.62856 | -23.82071 | 36312 ft | 435 kts | 139° |
| 2026-05-08 02:28 | 63.58335 | -23.73010 | 36312 ft | 431 kts | 129° |
| 2026-05-08 02:28 | 63.54611 | -23.62720 | 36300 ft | 425 kts | 119° |
| 2026-05-08 02:29 | 63.51699 | -23.51324 | 36302 ft | 419 kts | 109° |
| 2026-05-08 02:29 | 63.49692 | -23.39210 | 36299 ft | 411 kts | 99° |
| 2026-05-08 02:30 | 63.48724 | -23.28493 | 36301 ft | 405 kts | 90° |
| 2026-05-08 03:11 | 63.48622 | -23.26491 | 36292 ft | 404 kts | 89° |